Time;durP1;ratioP1;P1;durP2;ratioP2;P2;SDS_P1;SDS_P2;PMS_P1;PMS_P2;Temp;Humidity;BMP_temperature;BMP_pressure;BME280_temperature;BME280_humidity;BME280_pressure;Samples;Min_cycle;Max_cycle;Signal;HPM_P1;HPM_P2
2022/05/12 00:02:27;;;;;;;0.40;0.40;;;16.40;99.90;;;;;;5015129;28;20230;-66
2022/05/12 00:05:17;;;;;;;0.40;0.40;;;16.50;99.90;;;;;;5016638;28;20206;-67
2022/05/12 00:08:06;;;;;;;0.40;0.40;;;16.50;99.90;;;;;;5016480;28;20234;-66
2022/05/12 00:10:56;;;;;;;0.40;0.40;;;16.50;99.90;;;;;;5016321;28;20195;-67
2022/05/12 00:13:44;;;;;;;1.40;1.30;;;16.50;99.90;;;;;;5015686;28;20246;-67
2022/05/12 00:16:32;;;;;;;0.47;0.47;;;16.50;99.90;;;;;;5015244;28;20203;-67
2022/05/12 00:19:21;;;;;;;0.40;0.40;;;16.50;99.90;;;;;;5015617;28;20218;-66
2022/05/12 00:22:09;;;;;;;2.20;1.77;;;16.50;99.90;;;;;;5015182;28;20222;-67
2022/05/12 00:24:58;;;;;;;0.40;0.40;;;16.60;99.90;;;;;;5016913;28;20286;-67
2022/05/12 00:27:48;;;;;;;0.40;0.40;;;16.70;99.90;;;;;;5029824;28;20219;-67
2022/05/12 00:30:36;;;;;;;0.40;0.40;;;16.60;99.90;;;;;;5030592;28;20195;-67
2022/05/12 00:33:27;;;;;;;0.40;0.40;;;16.70;99.90;;;;;;5030095;28;20275;-67
2022/05/12 00:36:15;;;;;;;0.40;0.40;;;16.80;99.90;;;;;;5030391;28;20210;-67
2022/05/12 00:39:04;;;;;;;0.40;0.40;;;16.80;99.90;;;;;;5030183;28;20226;-67
2022/05/12 00:41:52;;;;;;;0.40;0.40;;;16.90;99.90;;;;;;5025249;28;20287;-67
2022/05/12 00:44:41;;;;;;;0.40;0.40;;;16.90;99.90;;;;;;5028240;28;20253;-67
2022/05/12 00:47:29;;;;;;;0.40;0.40;;;16.90;99.90;;;;;;5016226;28;20214;-67
2022/05/12 00:50:19;;;;;;;0.40;0.40;;;16.90;99.90;;;;;;5015837;28;20195;-67
2022/05/12 00:53:10;;;;;;;0.40;0.40;;;16.90;99.90;;;;;;5015053;28;20308;-67
2022/05/12 00:55:59;;;;;;;0.40;0.40;;;17.00;99.90;;;;;;5015348;28;20229;-67
2022/05/12 00:58:49;;;;;;;0.40;0.40;;;17.00;99.90;;;;;;5015585;28;20253;-67
2022/05/12 01:01:40;;;;;;;0.40;0.40;;;17.10;99.90;;;;;;5013722;28;20223;-68
2022/05/12 01:04:30;;;;;;;0.40;0.40;;;17.10;99.90;;;;;;5014959;28;20246;-67
2022/05/12 01:07:18;;;;;;;0.40;0.40;;;17.10;99.90;;;;;;5015644;28;20777;-67
2022/05/12 01:10:09;;;;;;;0.40;0.40;;;17.10;99.90;;;;;;5014947;28;20244;-66
2022/05/12 01:12:58;;;;;;;0.40;0.40;;;17.20;99.90;;;;;;5015492;28;20223;-67
2022/05/12 01:15:51;;;;;;;0.40;0.40;;;17.20;99.90;;;;;;5015235;28;20762;-67
2022/05/12 01:18:41;;;;;;;0.40;0.40;;;17.20;99.90;;;;;;5014778;28;20198;-67
2022/05/12 01:21:29;;;;;;;0.40;0.40;;;17.20;99.90;;;;;;5014339;28;20233;-67
2022/05/12 01:24:22;;;;;;;0.82;0.82;;;17.20;99.90;;;;;;5014133;28;20210;-67
2022/05/12 01:27:20;;;;;;;0.65;0.60;;;16.90;99.90;;;;;;5014364;28;20273;-67
2022/05/12 01:30:11;;;;;;;0.93;0.52;;;16.40;99.90;;;;;;5014068;28;20284;-67
2022/05/12 01:32:59;;;;;;;1.13;1.05;;;16.00;99.90;;;;;;5014287;28;20310;-67
2022/05/12 01:35:47;;;;;;;0.57;0.57;;;15.80;99.90;;;;;;5014553;28;20679;-65
2022/05/12 01:38:35;;;;;;;0.40;0.40;;;15.70;99.90;;;;;;5015550;28;20206;-65
2022/05/12 01:41:25;;;;;;;0.70;0.70;;;15.70;99.90;;;;;;5013701;28;20278;-65
2022/05/12 01:44:13;;;;;;;1.70;1.60;;;15.60;99.90;;;;;;5014295;28;20206;-65
2022/05/12 01:47:01;;;;;;;2.45;1.70;;;15.40;99.90;;;;;;5014658;28;20214;-65
2022/05/12 01:49:50;;;;;;;0.68;0.68;;;15.40;99.90;;;;;;5013992;28;20202;-65
2022/05/12 01:52:39;;;;;;;0.60;0.60;;;15.40;99.90;;;;;;5013921;28;20581;-65
2022/05/12 01:55:27;;;;;;;0.90;0.90;;;15.30;99.90;;;;;;5031811;28;20209;-66
2022/05/12 01:58:18;;;;;;;3.28;3.05;;;15.30;99.90;;;;;;5014629;28;20935;-66
2022/05/12 02:01:07;;;;;;;0.60;0.60;;;15.40;99.90;;;;;;5014613;28;20218;-67
2022/05/12 02:03:55;;;;;;;0.40;0.40;;;15.30;99.90;;;;;;5013744;28;20202;-66
2022/05/12 02:06:44;;;;;;;0.70;0.70;;;15.30;99.90;;;;;;5015232;28;20249;-67
2022/05/12 02:09:32;;;;;;;1.00;1.00;;;15.30;99.90;;;;;;5015237;28;20288;-67
2022/05/12 02:12:20;;;;;;;2.33;2.17;;;15.30;99.90;;;;;;5017233;28;20222;-67
2022/05/12 02:15:11;;;;;;;2.30;1.47;;;15.40;99.90;;;;;;5018249;28;20677;-67
2022/05/12 02:18:00;;;;;;;0.90;0.90;;;15.40;99.90;;;;;;5019323;28;20206;-66
2022/05/12 02:20:48;;;;;;;0.40;0.40;;;15.50;99.90;;;;;;5016044;28;20742;-66
2022/05/12 02:23:37;;;;;;;0.40;0.40;;;15.50;99.90;;;;;;5016434;28;20202;-66
2022/05/12 02:26:25;;;;;;;0.40;0.40;;;15.60;99.90;;;;;;5018549;28;20622;-66
2022/05/12 02:29:13;;;;;;;1.07;0.77;;;15.80;99.90;;;;;;5018358;28;20667;-67
2022/05/12 02:32:03;;;;;;;1.13;1.03;;;15.60;99.90;;;;;;5018376;28;20211;-67
2022/05/12 02:34:51;;;;;;;3.80;1.80;;;15.20;99.90;;;;;;5018298;28;20206;-67
2022/05/12 02:37:39;;;;;;;0.40;0.40;;;14.80;99.90;;;;;;5016454;28;20253;-67
2022/05/12 02:40:28;;;;;;;0.60;0.60;;;14.60;99.90;;;;;;5017034;28;20687;-67
2022/05/12 02:43:26;;;;;;;1.07;0.97;;;14.50;99.90;;;;;;5016313;28;20234;-67
2022/05/12 02:46:15;;;;;;;20.97;19.93;;;14.50;99.90;;;;;;5017671;28;20214;-67
2022/05/12 02:49:05;;;;;;;0.40;0.40;;;14.40;99.90;;;;;;5028931;28;20202;-67
2022/05/12 02:51:53;;;;;;;0.40;0.40;;;14.30;99.90;;;;;;5034549;28;20296;-67
2022/05/12 02:54:41;;;;;;;0.40;0.40;;;14.50;99.90;;;;;;5029635;28;20195;-67
2022/05/12 02:57:29;;;;;;;0.47;0.47;;;14.50;99.90;;;;;;5034507;28;20203;-66
2022/05/12 03:00:18;;;;;;;0.90;0.90;;;14.40;99.90;;;;;;5034482;28;20249;-67
2022/05/12 03:03:07;;;;;;;0.40;0.40;;;14.40;99.90;;;;;;5036785;28;20300;-67
2022/05/12 03:05:57;;;;;;;1.27;1.17;;;14.30;99.90;;;;;;5034498;28;20206;-67
2022/05/12 03:08:45;;;;;;;0.40;0.40;;;14.30;99.90;;;;;;5035481;28;20251;-67
2022/05/12 03:11:33;;;;;;;0.40;0.40;;;14.30;99.90;;;;;;5034229;28;20529;-67
2022/05/12 03:14:22;;;;;;;0.40;0.40;;;14.30;99.90;;;;;;5034393;28;20469;-67
2022/05/12 03:17:10;;;;;;;0.40;0.40;;;14.30;99.90;;;;;;5034244;28;20223;-68
2022/05/12 03:19:58;;;;;;;0.40;0.40;;;14.20;99.90;;;;;;5033286;28;20198;-67
2022/05/12 03:22:48;;;;;;;1.23;0.80;;;14.30;99.90;;;;;;5034102;28;20468;-67
2022/05/12 03:25:36;;;;;;;1.63;1.53;;;14.20;99.90;;;;;;5033359;28;20199;-67
2022/05/12 03:28:24;;;;;;;0.40;0.40;;;14.30;99.90;;;;;;5034008;28;20678;-67
2022/05/12 03:31:12;;;;;;;0.60;0.60;;;14.30;99.90;;;;;;5032813;28;20203;-67
2022/05/12 03:34:01;;;;;;;0.93;0.73;;;14.40;99.90;;;;;;5032408;28;20200;-66
2022/05/12 03:36:49;;;;;;;0.40;0.40;;;14.30;99.90;;;;;;5015058;28;20426;-67
2022/05/12 03:39:39;;;;;;;0.40;0.40;;;14.40;99.90;;;;;;5017097;28;20245;-66
2022/05/12 03:42:27;;;;;;;0.40;0.40;;;14.30;99.90;;;;;;5014876;28;20810;-66
2022/05/12 03:45:15;;;;;;;1.73;0.70;;;14.30;99.90;;;;;;5017015;28;20289;-66
2022/05/12 03:48:04;;;;;;;0.87;0.80;;;14.20;99.90;;;;;;5016671;28;20210;-67
2022/05/12 03:50:52;;;;;;;0.50;0.50;;;14.20;99.90;;;;;;5016228;28;20199;-66
2022/05/12 03:53:40;;;;;;;1.30;0.90;;;14.20;99.90;;;;;;5015667;28;20287;-66
2022/05/12 03:56:30;;;;;;;1.63;0.97;;;14.20;99.90;;;;;;5016129;28;20277;-66
2022/05/12 03:59:23;;;;;;;0.90;0.90;;;14.30;99.90;;;;;;5016932;28;20210;-66
2022/05/12 04:02:13;;;;;;;0.50;0.50;;;14.50;99.90;;;;;;5014924;28;20469;-65
2022/05/12 04:05:01;;;;;;;2.50;1.77;;;14.30;99.90;;;;;;5015047;28;20202;-66
2022/05/12 04:07:51;;;;;;;1.27;1.17;;;14.30;99.90;;;;;;5015403;28;20260;-66
2022/05/12 04:10:39;;;;;;;1.73;1.20;;;14.50;99.90;;;;;;5015788;28;20419;-66
2022/05/12 04:13:28;;;;;;;1.30;1.20;;;14.20;99.90;;;;;;5016843;28;20453;-66
2022/05/12 04:16:18;;;;;;;1.10;1.07;;;14.30;99.90;;;;;;5017133;28;20236;-66
2022/05/12 04:19:06;;;;;;;1.63;1.50;;;14.40;99.90;;;;;;5016980;28;20203;-65
2022/05/12 04:21:54;;;;;;;4.23;2.10;;;14.30;99.90;;;;;;5014443;28;20470;-66
2022/05/12 04:24:43;;;;;;;5.50;2.30;;;14.20;99.90;;;;;;5015341;28;20516;-65
2022/05/12 04:27:35;;;;;;;5.57;1.07;;;14.20;99.90;;;;;;5014775;28;20202;-66
2022/05/12 04:30:27;;;;;;;1.33;1.20;;;14.10;99.90;;;;;;5014820;28;20769;-66
2022/05/12 04:36:26;;;;;;;2.00;1.90;;;14.00;99.90;;;;;;4953810;28;20317;-65
2022/05/12 04:39:14;;;;;;;0.40;0.40;;;14.10;99.90;;;;;;5014599;28;20464;-66
2022/05/12 04:42:03;;;;;;;0.40;0.40;;;14.20;99.90;;;;;;5015711;28;20226;-66
2022/05/12 04:44:51;;;;;;;0.70;0.60;;;14.30;99.90;;;;;;5016023;28;20701;-66
2022/05/12 04:47:42;;;;;;;0.60;0.60;;;14.40;99.90;;;;;;5026788;28;20433;-66
2022/05/12 04:50:34;;;;;;;1.33;1.27;;;14.50;99.90;;;;;;5026430;28;20427;-66
2022/05/12 04:53:23;;;;;;;0.40;0.40;;;14.60;99.90;;;;;;5025754;28;20470;-65
2022/05/12 04:56:11;;;;;;;0.40;0.40;;;14.60;99.90;;;;;;5023399;28;20262;-66
2022/05/12 04:58:59;;;;;;;0.43;0.43;;;14.70;99.90;;;;;;5024240;28;20433;-66
2022/05/12 05:01:47;;;;;;;3.27;1.70;;;14.70;99.90;;;;;;5026439;28;20226;-66
2022/05/12 05:04:36;;;;;;;1.97;1.87;;;14.60;99.90;;;;;;5023193;28;20207;-66
2022/05/12 05:07:26;;;;;;;3.53;3.03;;;14.70;99.90;;;;;;5015373;28;20226;-65
2022/05/12 05:10:14;;;;;;;1.73;1.40;;;14.70;99.90;;;;;;5014731;28;20454;-66
2022/05/12 05:13:03;;;;;;;5.10;1.33;;;14.60;99.90;;;;;;5016166;28;20438;-66
2022/05/12 05:15:53;;;;;;;0.80;0.80;;;14.70;99.90;;;;;;5014500;28;20441;-65
2022/05/12 05:18:41;;;;;;;1.20;1.10;;;14.60;99.90;;;;;;5015200;28;20434;-65
2022/05/12 05:21:31;;;;;;;1.03;0.93;;;14.70;99.90;;;;;;5013744;28;20229;-66
2022/05/12 05:24:19;;;;;;;0.70;0.57;;;14.60;99.90;;;;;;5016574;28;21000;-66
2022/05/12 05:27:08;;;;;;;16.67;2.87;;;14.80;99.90;;;;;;5014958;28;20210;-65
2022/05/12 05:29:56;;;;;;;3.70;1.87;;;14.90;99.90;;;;;;5014864;28;20485;-65
2022/05/12 05:32:44;;;;;;;0.80;0.80;;;14.90;99.90;;;;;;5015409;28;20226;-65
2022/05/12 05:35:34;;;;;;;0.50;0.50;;;15.10;99.90;;;;;;5014760;28;20210;-63
2022/05/12 05:38:23;;;;;;;1.53;1.43;;;15.00;99.90;;;;;;5018188;28;20209;-65
2022/05/12 05:41:11;;;;;;;0.40;0.40;;;15.00;99.90;;;;;;5034077;28;20411;-65
2022/05/12 05:44:00;;;;;;;1.07;0.90;;;15.00;99.90;;;;;;5033734;28;20202;-65
2022/05/12 05:46:48;;;;;;;5.27;1.17;;;14.90;99.90;;;;;;5033963;28;20201;-65
2022/05/12 05:49:37;;;;;;;10.20;1.90;;;15.10;99.90;;;;;;5034521;28;20789;-65
2022/05/12 05:55:37;;;;;;;1.13;0.60;;;15.00;99.90;;;;;;5030119;28;20205;-65
2022/05/12 05:58:26;;;;;;;0.50;0.50;;;14.90;99.90;;;;;;5038354;28;20230;-65
2022/05/12 06:01:17;;;;;;;0.77;0.53;;;14.90;99.90;;;;;;5031819;28;20199;-65
2022/05/12 06:04:06;;;;;;;0.67;0.67;;;15.00;99.90;;;;;;5038918;28;20206;-65
2022/05/12 06:06:54;;;;;;;1.43;0.53;;;15.10;99.90;;;;;;5038733;28;20226;-65
2022/05/12 06:09:43;;;;;;;1.67;0.53;;;15.40;99.90;;;;;;5056532;28;20424;-65
2022/05/12 06:12:33;;;;;;;1.90;0.80;;;15.60;99.90;;;;;;5054117;28;20209;-65
2022/05/12 06:15:21;;;;;;;0.60;0.60;;;15.60;99.90;;;;;;5054873;28;20217;-65
2022/05/12 06:18:12;;;;;;;1.00;0.60;;;15.30;99.90;;;;;;5053345;28;20744;-65
2022/05/12 06:21:00;;;;;;;0.40;0.40;;;15.20;99.90;;;;;;5036953;28;20225;-65
2022/05/12 06:23:48;;;;;;;1.40;0.70;;;15.10;99.90;;;;;;5052954;28;20201;-65
2022/05/12 06:26:36;;;;;;;1.07;1.07;;;15.20;99.90;;;;;;5052525;28;20280;-65
2022/05/12 06:29:26;;;;;;;0.90;0.60;;;15.30;99.90;;;;;;5053042;28;20290;-64
2022/05/12 06:32:15;;;;;;;0.87;0.80;;;15.30;99.90;;;;;;5051598;28;20716;-64
2022/05/12 06:35:04;;;;;;;0.60;0.50;;;15.30;99.90;;;;;;5053468;28;20202;-65
2022/05/12 06:37:53;;;;;;;0.40;0.40;;;15.20;99.90;;;;;;5052113;28;20581;-64
2022/05/12 06:40:41;;;;;;;0.50;0.50;;;15.40;99.90;;;;;;5052468;28;20653;-64
2022/05/12 06:43:30;;;;;;;0.50;0.50;;;15.40;99.90;;;;;;5052454;28;20487;-66
2022/05/12 06:46:20;;;;;;;0.63;0.63;;;15.50;99.90;;;;;;5038136;28;20296;-65
2022/05/12 06:49:09;;;;;;;0.60;0.60;;;15.40;99.90;;;;;;5012606;28;20223;-65
2022/05/12 06:51:57;;;;;;;1.53;0.60;;;15.40;99.90;;;;;;5012880;28;20234;-65
2022/05/12 06:54:46;;;;;;;0.50;0.50;;;15.60;99.90;;;;;;5013876;28;20831;-65
2022/05/12 06:57:34;;;;;;;0.60;0.60;;;15.50;99.90;;;;;;5013019;28;20424;-65
2022/05/12 07:00:22;;;;;;;0.40;0.40;;;15.70;99.90;;;;;;5015828;28;20201;-66
2022/05/12 07:03:12;;;;;;;0.88;0.70;;;15.90;99.90;;;;;;5016821;28;20282;-63
2022/05/12 07:06:02;;;;;;;0.70;0.70;;;15.80;99.90;;;;;;5017263;28;20257;-64
2022/05/12 07:08:51;;;;;;;0.50;0.50;;;15.80;99.90;;;;;;5016431;28;20211;-64
2022/05/12 07:11:39;;;;;;;0.65;0.50;;;15.70;99.90;;;;;;5016119;28;20313;-65
2022/05/12 07:14:27;;;;;;;0.60;0.60;;;15.80;99.90;;;;;;5016221;28;20258;-64
2022/05/12 07:17:19;;;;;;;1.00;0.60;;;15.50;99.90;;;;;;5017345;28;20202;-65
2022/05/12 07:26:40;;;;;;;0.60;0.60;;;15.50;99.90;;;;;;5015305;28;20704;-65
2022/05/12 07:29:29;;;;;;;0.40;0.40;;;15.60;99.90;;;;;;5015467;28;20584;-65
2022/05/12 07:32:17;;;;;;;3.23;2.00;;;15.60;99.90;;;;;;5014726;28;20262;-65
2022/05/12 07:35:07;;;;;;;0.40;0.40;;;15.70;99.90;;;;;;5015302;28;20202;-65
2022/05/12 07:37:56;;;;;;;0.50;0.50;;;15.90;99.90;;;;;;5015559;28;20273;-65
2022/05/12 07:40:44;;;;;;;0.40;0.40;;;15.90;99.90;;;;;;5026160;28;20202;-65
2022/05/12 07:43:33;;;;;;;0.40;0.40;;;16.20;99.90;;;;;;5034958;28;20612;-65
2022/05/12 07:46:23;;;;;;;0.73;0.73;;;16.30;99.90;;;;;;5034548;28;20276;-65
2022/05/12 07:49:12;;;;;;;2.63;0.80;;;16.30;99.90;;;;;;5033709;28;20228;-65
2022/05/12 07:52:10;;;;;;;3.05;0.60;;;16.40;99.90;;;;;;5034242;28;20317;-65
2022/05/12 07:54:59;;;;;;;0.50;0.50;;;16.30;99.90;;;;;;5033757;28;20229;-66
2022/05/12 07:57:47;;;;;;;2.20;0.50;;;16.30;99.90;;;;;;5049311;28;20202;-65
2022/05/12 08:00:36;;;;;;;0.40;0.40;;;16.30;99.90;;;;;;5030020;28;20356;-65
2022/05/12 08:03:24;;;;;;;0.50;0.50;;;16.50;99.90;;;;;;5016338;28;20340;-67
2022/05/12 08:06:15;;;;;;;0.68;0.68;;;16.70;99.90;;;;;;5024298;28;20198;-66
2022/05/12 08:09:03;;;;;;;0.50;0.50;;;16.50;99.90;;;;;;5016601;28;20203;-66
2022/05/12 08:11:53;;;;;;;0.45;0.45;;;16.40;99.90;;;;;;5021210;28;20269;-66
2022/05/12 08:14:41;;;;;;;0.50;0.50;;;16.40;99.90;;;;;;5021982;28;20195;-66
2022/05/12 08:17:29;;;;;;;2.10;0.85;;;16.50;99.90;;;;;;5015123;28;20234;-66
2022/05/12 08:20:17;;;;;;;0.50;0.50;;;16.40;99.90;;;;;;5016256;28;20202;-65
2022/05/12 08:23:06;;;;;;;0.50;0.50;;;16.50;99.90;;;;;;5014480;28;20231;-66
2022/05/12 08:25:54;;;;;;;0.47;0.47;;;15.90;99.90;;;;;;5014701;28;20207;-65
2022/05/12 08:28:50;;;;;;;0.95;0.50;;;15.80;99.90;;;;;;5022067;28;20201;-65
2022/05/12 08:31:38;;;;;;;2.70;0.60;;;15.60;99.90;;;;;;5026471;28;20233;-66
2022/05/12 08:34:26;;;;;;;0.60;0.60;;;16.20;99.90;;;;;;5031513;28;20686;-65
2022/05/12 08:37:15;;;;;;;0.57;0.55;;;16.20;99.90;;;;;;5013666;28;20191;-66
2022/05/12 08:40:04;;;;;;;1.23;0.60;;;16.80;99.90;;;;;;5014034;28;20261;-66
2022/05/12 08:42:53;;;;;;;0.70;0.50;;;16.40;99.90;;;;;;5015560;28;20210;-65
2022/05/12 08:45:44;;;;;;;0.50;0.50;;;16.00;99.90;;;;;;5030516;28;20274;-65
2022/05/12 08:48:32;;;;;;;0.50;0.50;;;15.80;99.90;;;;;;5031065;28;20194;-66
2022/05/12 08:51:22;;;;;;;0.90;0.60;;;16.20;99.90;;;;;;5033048;28;20233;-66
2022/05/12 08:54:18;;;;;;;0.40;0.40;;;16.40;99.90;;;;;;5041202;28;20205;-66
2022/05/12 08:57:09;;;;;;;0.40;0.40;;;16.50;99.90;;;;;;5042319;28;20202;-67
2022/05/12 08:59:58;;;;;;;0.50;0.50;;;16.80;99.90;;;;;;5032647;28;20664;-66
2022/05/12 09:02:58;;;;;;;0.60;0.60;;;16.80;99.90;;;;;;5030552;28;20226;-66
2022/05/12 09:05:59;;;;;;;0.40;0.40;;;16.60;99.90;;;;;;5046840;28;20195;-66
2022/05/12 09:08:53;;;;;;;0.88;0.88;;;16.60;99.90;;;;;;5044379;28;20226;-66
2022/05/12 09:11:46;;;;;;;1.33;1.23;;;16.90;99.90;;;;;;5016431;28;20306;-66
2022/05/12 09:14:37;;;;;;;0.98;0.98;;;17.20;99.90;;;;;;5029546;28;20198;-66
2022/05/12 09:17:38;;;;;;;0.65;0.65;;;16.90;99.90;;;;;;5016393;28;20218;-66
2022/05/12 09:20:30;;;;;;;0.40;0.40;;;16.90;99.90;;;;;;5015434;28;20195;-65
2022/05/12 09:23:18;;;;;;;0.50;0.50;;;17.10;99.90;;;;;;5033328;28;20300;-66
2022/05/12 09:26:36;;;;;;;0.50;0.50;;;16.80;99.90;;;;;;5033187;28;20238;-66
2022/05/12 09:29:26;;;;;;;0.60;0.50;;;16.60;99.90;;;;;;5034451;28;20234;-66
2022/05/12 09:32:22;;;;;;;0.60;0.60;;;16.70;99.90;;;;;;5033898;28;20218;-66
2022/05/12 09:35:26;;;;;;;0.40;0.40;;;16.90;99.90;;;;;;5034495;28;20202;-66
2022/05/12 09:38:23;;;;;;;0.40;0.40;;;17.20;99.90;;;;;;5014404;28;20207;-65
2022/05/12 09:41:17;;;;;;;0.40;0.40;;;17.60;99.90;;;;;;5015083;28;20281;-66
2022/05/12 09:44:18;;;;;;;1.15;0.50;;;17.40;99.90;;;;;;5013831;28;20304;-66
2022/05/12 09:47:11;;;;;;;0.50;0.50;;;17.20;99.90;;;;;;5029698;28;20205;-66
2022/05/12 09:50:16;;;;;;;0.40;0.40;;;17.20;99.90;;;;;;5044506;28;20209;-67
2022/05/12 09:53:07;;;;;;;1.40;0.50;;;17.50;99.90;;;;;;5021107;28;20229;-66
2022/05/12 09:56:01;;;;;;;0.70;0.70;;;18.00;99.90;;;;;;5024285;28;20225;-66
2022/05/12 09:59:02;;;;;;;0.40;0.40;;;17.80;99.90;;;;;;5019816;28;20257;-66
2022/05/12 10:01:53;;;;;;;0.40;0.40;;;17.20;99.90;;;;;;5038036;28;20222;-65
2022/05/12 10:08:03;;;;;;;0.60;0.50;;;17.40;99.90;;;;;;5022733;28;20202;-65
2022/05/12 10:10:54;;;;;;;0.40;0.40;;;18.10;99.90;;;;;;5033707;28;20194;-65
2022/05/12 10:13:48;;;;;;;1.10;0.50;;;18.20;99.90;;;;;;5031127;28;20272;-65
2022/05/12 10:16:37;;;;;;;0.40;0.40;;;18.30;99.90;;;;;;5031643;28;20258;-65
2022/05/12 10:19:27;;;;;;;0.70;0.60;;;18.10;99.90;;;;;;5032260;28;20206;-65
2022/05/12 10:22:18;;;;;;;0.70;0.70;;;18.00;99.90;;;;;;5028040;28;20303;-65
2022/05/12 10:25:22;;;;;;;0.40;0.40;;;17.90;99.90;;;;;;5012061;28;20265;-65
2022/05/12 10:28:18;;;;;;;0.40;0.40;;;18.20;99.90;;;;;;5013045;28;20209;-65
2022/05/12 10:31:18;;;;;;;1.17;1.08;;;18.30;99.90;;;;;;5037925;23;20256;-67
2022/05/12 10:34:27;;;;;;;0.73;0.73;;;18.30;99.90;;;;;;5074107;28;20204;-68
2022/05/12 10:37:38;;;;;;;0.50;0.50;;;18.10;99.90;;;;;;5074277;28;20201;-67
2022/05/12 10:40:37;;;;;;;0.82;0.60;;;18.20;99.90;;;;;;5073001;28;20251;-66
2022/05/12 10:43:56;;;;;;;0.80;0.80;;;18.20;99.90;;;;;;5053420;28;20204;-66
2022/05/12 10:46:57;;;;;;;0.80;0.80;;;18.30;99.90;;;;;;5052635;28;20223;-67
2022/05/12 10:49:54;;;;;;;0.70;0.70;;;18.00;99.90;;;;;;5056935;28;20220;-66
2022/05/12 10:52:50;;;;;;;0.50;0.50;;;17.80;99.90;;;;;;5051370;28;20229;-66
2022/05/12 10:55:46;;;;;;;1.08;1.08;;;18.10;99.90;;;;;;5043960;28;20554;-67
2022/05/12 10:58:39;;;;;;;1.02;1.02;;;17.80;99.90;;;;;;5054579;28;20225;-66
2022/05/12 11:01:33;;;;;;;0.50;0.50;;;18.10;99.90;;;;;;5055757;28;20302;-67
2022/05/12 11:04:27;;;;;;;0.50;0.50;;;18.20;99.90;;;;;;5055500;28;20221;-66
2022/05/12 11:07:29;;;;;;;0.60;0.50;;;18.20;99.90;;;;;;5047852;28;20213;-65
2022/05/12 11:10:27;;;;;;;0.60;0.60;;;18.30;99.90;;;;;;5052910;28;20216;-69
2022/05/12 11:13:20;;;;;;;0.40;0.40;;;18.60;99.90;;;;;;5047238;28;20266;-69
2022/05/12 11:16:14;;;;;;;0.50;0.50;;;18.80;99.90;;;;;;5032926;28;20205;-70
2022/05/12 11:19:07;;;;;;;0.47;0.47;;;19.10;99.90;;;;;;5047276;28;20208;-68
2022/05/12 11:22:11;;;;;;;0.60;0.60;;;19.40;99.90;;;;;;5053063;28;20221;-69
2022/05/12 11:25:07;;;;;;;1.15;0.95;;;19.50;99.90;;;;;;5054476;28;20220;-70
2022/05/12 11:31:15;;;;;;;0.40;0.40;;;19.40;99.90;;;;;;5046713;28;20362;-70
2022/05/12 11:34:08;;;;;;;0.50;0.50;;;19.60;99.90;;;;;;5040469;28;20201;-70
2022/05/12 11:36:57;;;;;;;1.38;0.80;;;19.80;99.90;;;;;;5044008;28;20674;-72
2022/05/12 11:39:55;;;;;;;0.40;0.40;;;19.80;99.90;;;;;;5056364;28;20198;-73
2022/05/12 11:46:18;;;;;;;0.40;0.40;;;19.40;99.90;;;;;;5049631;28;20217;-73
2022/05/12 11:49:13;;;;;;;0.50;0.50;;;19.30;99.90;;;;;;5046215;28;20223;-70
2022/05/12 11:52:18;;;;;;;0.40;0.40;;;19.30;99.90;;;;;;5031365;28;20304;-69
2022/05/12 11:55:22;;;;;;;0.50;0.50;;;19.30;99.90;;;;;;5040321;28;20197;-70
2022/05/12 11:58:13;;;;;;;0.50;0.50;;;19.40;99.90;;;;;;5050062;28;20244;-68
2022/05/12 12:01:04;;;;;;;0.60;0.60;;;19.20;99.90;;;;;;5045835;28;20228;-68
2022/05/12 12:03:55;;;;;;;0.60;0.50;;;19.30;99.90;;;;;;5043203;28;20204;-69
2022/05/12 12:06:51;;;;;;;0.80;0.60;;;19.40;99.90;;;;;;5047323;28;20213;-69
2022/05/12 12:09:56;;;;;;;0.50;0.50;;;19.50;99.90;;;;;;5045950;28;20260;-68
2022/05/12 12:13:01;;;;;;;0.60;0.60;;;19.70;99.30;;;;;;5041051;28;20225;-67
2022/05/12 12:16:03;;;;;;;1.70;0.98;;;19.70;99.60;;;;;;5047419;28;21033;-69
2022/05/12 12:18:55;;;;;;;0.57;0.57;;;19.70;99.80;;;;;;5052332;28;20208;-70
2022/05/12 12:21:51;;;;;;;0.60;0.60;;;19.60;99.10;;;;;;5052132;28;20229;-70
2022/05/12 12:25:00;;;;;;;0.50;0.50;;;19.70;99.30;;;;;;5050422;28;20320;-68
2022/05/12 12:28:12;;;;;;;0.50;0.50;;;19.80;99.10;;;;;;5044588;28;20212;-71
2022/05/12 12:31:08;;;;;;;1.33;1.33;;;19.70;99.00;;;;;;5044372;28;20720;-70
2022/05/12 12:34:15;;;;;;;0.68;0.68;;;20.40;97.10;;;;;;5050285;28;20206;-68
2022/05/12 12:37:06;;;;;;;0.60;0.60;;;19.40;96.90;;;;;;5036228;28;20664;-69
2022/05/12 12:39:55;;;;;;;0.77;0.70;;;19.20;96.40;;;;;;5046131;28;20210;-69
2022/05/12 12:42:45;;;;;;;0.52;0.52;;;19.10;96.30;;;;;;5051746;28;20244;-69
2022/05/12 12:45:47;;;;;;;0.47;0.47;;;19.40;97.00;;;;;;5050669;28;20225;-71
2022/05/12 12:48:46;;;;;;;0.50;0.50;;;21.50;95.40;;;;;;5049258;28;20210;-67
2022/05/12 12:51:36;;;;;;;1.50;0.80;;;23.40;91.80;;;;;;5048639;28;20229;-69
2022/05/12 12:57:44;;;;;;;0.50;0.50;;;24.40;84.80;;;;;;5056229;28;20211;-70
2022/05/12 13:00:34;;;;;;;0.70;0.70;;;25.00;80.70;;;;;;5052813;28;20736;-68
2022/05/12 13:03:23;;;;;;;0.50;0.43;;;23.40;83.30;;;;;;5049010;28;20666;-69
2022/05/12 13:06:16;;;;;;;0.80;0.52;;;22.00;84.60;;;;;;5045220;28;20251;-70
2022/05/12 13:09:06;;;;;;;0.40;0.40;;;22.20;86.60;;;;;;5049186;28;20589;-69
2022/05/12 13:12:09;;;;;;;0.60;0.60;;;24.30;84.30;;;;;;5050692;28;20295;-67
2022/05/12 13:15:00;;;;;;;0.50;0.50;;;27.50;77.20;;;;;;5046701;28;20216;-67
2022/05/12 13:17:51;;;;;;;0.50;0.50;;;28.10;70.50;;;;;;5044709;28;20202;-68
2022/05/12 13:20:56;;;;;;;0.40;0.40;;;25.30;72.10;;;;;;5040632;28;20225;-68
2022/05/12 13:23:59;;;;;;;0.50;0.50;;;25.20;74.40;;;;;;5045084;28;20299;-68
2022/05/12 13:26:51;;;;;;;0.70;0.70;;;26.70;72.90;;;;;;5042474;28;20233;-69
2022/05/12 13:29:41;;;;;;;0.55;0.50;;;27.80;70.70;;;;;;5048491;28;20212;-67
2022/05/12 13:32:38;;;;;;;0.40;0.40;;;30.00;63.10;;;;;;5033824;28;20261;-67
2022/05/12 13:35:30;;;;;;;0.80;0.50;;;30.00;63.90;;;;;;5042530;28;20272;-66
2022/05/12 13:38:21;;;;;;;0.60;0.52;;;30.60;60.30;;;;;;5051566;28;20198;-66
2022/05/12 13:41:22;;;;;;;0.50;0.50;;;30.80;57.70;;;;;;5050321;28;20599;-68
2022/05/12 13:44:17;;;;;;;0.50;0.50;;;31.30;57.40;;;;;;5049754;28;20263;-66
2022/05/12 13:47:07;;;;;;;1.02;0.70;;;30.50;56.40;;;;;;5049549;28;20309;-66
2022/05/12 13:49:56;;;;;;;0.40;0.40;;;27.70;59.30;;;;;;5051601;28;20212;-68
2022/05/12 13:52:45;;;;;;;0.50;0.50;;;25.40;63.60;;;;;;5031715;28;20254;-68
2022/05/12 13:55:35;;;;;;;0.50;0.50;;;23.90;65.90;;;;;;5036188;28;20715;-68
2022/05/12 13:58:25;;;;;;;0.50;0.50;;;23.90;68.80;;;;;;5050710;28;20204;-69
2022/05/12 14:01:13;;;;;;;0.50;0.50;;;24.10;67.90;;;;;;5051527;28;20633;-69
2022/05/12 14:04:11;;;;;;;0.40;0.40;;;23.90;66.50;;;;;;5050736;28;20692;-69
2022/05/12 14:07:00;;;;;;;0.50;0.50;;;23.50;68.60;;;;;;5050136;28;20214;-68
2022/05/12 14:09:55;;;;;;;0.52;0.52;;;23.00;68.60;;;;;;5053827;28;20201;-67
2022/05/12 14:19:36;;;;;;;0.50;0.50;;;26.70;64.20;;;;;;4987070;28;20199;-67
2022/05/12 14:22:25;;;;;;;0.40;0.40;;;29.10;59.40;;;;;;5046971;28;20223;-67
2022/05/12 14:25:14;;;;;;;0.43;0.43;;;27.90;60.60;;;;;;5044872;28;20281;-70
2022/05/12 14:28:03;;;;;;;0.68;0.68;;;27.00;61.20;;;;;;5045086;28;20340;-67
2022/05/12 14:30:51;;;;;;;0.70;0.70;;;27.50;60.50;;;;;;5041756;28;20221;-66
2022/05/12 14:33:41;;;;;;;0.50;0.50;;;29.20;58.70;;;;;;5047950;28;20209;-67
2022/05/12 14:36:29;;;;;;;0.40;0.40;;;30.80;55.90;;;;;;5044506;28;20195;-68
2022/05/12 14:39:21;;;;;;;0.40;0.40;;;32.00;54.60;;;;;;5045131;28;20280;-67
2022/05/12 14:42:09;;;;;;;0.40;0.40;;;31.60;53.60;;;;;;5041281;28;20222;-67
2022/05/12 14:44:57;;;;;;;0.52;0.52;;;31.10;54.90;;;;;;5046100;28;20686;-68
2022/05/12 14:47:47;;;;;;;0.50;0.50;;;30.80;54.60;;;;;;5042501;28;20256;-68
2022/05/12 14:50:38;;;;;;;0.40;0.40;;;30.90;53.00;;;;;;5045434;28;20233;-68
2022/05/12 14:53:26;;;;;;;0.82;0.50;;;31.40;51.80;;;;;;5041610;28;20194;-68
2022/05/12 14:56:14;;;;;;;0.40;0.40;;;29.80;52.80;;;;;;5035271;28;20260;-68
2022/05/12 14:59:02;;;;;;;0.40;0.40;;;29.10;54.70;;;;;;5035903;28;20674;-68
2022/05/12 15:01:51;;;;;;;0.52;0.52;;;29.40;53.90;;;;;;5035017;28;20643;-68
2022/05/12 15:04:39;;;;;;;0.40;0.40;;;27.60;54.70;;;;;;5034679;28;20216;-68
2022/05/12 15:07:29;;;;;;;0.40;0.40;;;27.00;56.90;;;;;;5035774;28;20743;-68
2022/05/12 15:10:19;;;;;;;0.60;0.60;;;28.90;55.20;;;;;;5036056;28;20202;-68
2022/05/12 15:13:07;;;;;;;0.63;0.63;;;29.80;53.60;;;;;;5035181;28;20561;-68
2022/05/12 15:15:56;;;;;;;0.50;0.50;;;30.50;52.70;;;;;;5036721;28;20197;-68
2022/05/12 15:18:44;;;;;;;0.40;0.40;;;31.00;51.30;;;;;;5035829;28;20210;-68
2022/05/12 15:21:32;;;;;;;0.40;0.40;;;30.50;52.80;;;;;;5034562;28;20666;-68
2022/05/12 15:24:23;;;;;;;0.50;0.50;;;31.10;52.30;;;;;;5035962;28;20256;-68